sensor_id;sensor_type;location;lat;lon;timestamp;P1;durP1;ratioP1;P2;durP2;ratioP2
5878;SDS011;2965;42.640;23.370;2024-01-15T00:01:45;24.47;;;12.53;;
5878;SDS011;2965;42.640;23.370;2024-01-15T00:04:11;25.97;;;12.80;;
5878;SDS011;2965;42.640;23.370;2024-01-15T00:06:36;27.80;;;12.30;;
5878;SDS011;2965;42.640;23.370;2024-01-15T00:09:02;28.20;;;12.00;;
5878;SDS011;2965;42.640;23.370;2024-01-15T00:42:13;31.47;;;11.27;;
5878;SDS011;2965;42.640;23.370;2024-01-15T00:44:39;21.70;;;12.20;;
5878;SDS011;2965;42.640;23.370;2024-01-15T00:47:04;24.63;;;12.60;;
5878;SDS011;2965;42.640;23.370;2024-01-15T00:49:30;29.00;;;13.50;;
5878;SDS011;2965;42.640;23.370;2024-01-15T00:51:55;24.30;;;12.50;;
5878;SDS011;2965;42.640;23.370;2024-01-15T00:54:21;26.43;;;12.20;;
5878;SDS011;2965;42.640;23.370;2024-01-15T00:56:46;32.97;;;14.77;;
5878;SDS011;2965;42.640;23.370;2024-01-15T00:59:12;31.23;;;14.50;;
5878;SDS011;2965;42.640;23.370;2024-01-15T01:01:40;30.10;;;13.80;;
5878;SDS011;2965;42.640;23.370;2024-01-15T01:04:08;26.90;;;12.23;;
5878;SDS011;2965;42.640;23.370;2024-01-15T01:06:34;31.87;;;14.20;;
5878;SDS011;2965;42.640;23.370;2024-01-15T01:09:00;28.97;;;13.50;;
5878;SDS011;2965;42.640;23.370;2024-01-15T01:11:25;30.50;;;13.67;;
5878;SDS011;2965;42.640;23.370;2024-01-15T01:13:51;33.83;;;14.03;;
5878;SDS011;2965;42.640;23.370;2024-01-15T01:16:16;36.63;;;14.60;;
5878;SDS011;2965;42.640;23.370;2024-01-15T01:18:42;28.80;;;13.80;;
5878;SDS011;2965;42.640;23.370;2024-01-15T01:21:07;25.20;;;13.57;;
5878;SDS011;2965;42.640;23.370;2024-01-15T01:23:33;31.53;;;14.30;;
5878;SDS011;2965;42.640;23.370;2024-01-15T01:25:58;41.90;;;14.63;;
5878;SDS011;2965;42.640;23.370;2024-01-15T01:56:29;28.73;;;12.50;;
5878;SDS011;2965;42.640;23.370;2024-01-15T01:58:55;33.43;;;14.13;;
5878;SDS011;2965;42.640;23.370;2024-01-15T02:01:21;31.20;;;14.60;;
5878;SDS011;2965;42.640;23.370;2024-01-15T02:03:47;31.73;;;13.60;;
5878;SDS011;2965;42.640;23.370;2024-01-15T02:06:13;35.33;;;14.10;;
5878;SDS011;2965;42.640;23.370;2024-01-15T02:08:39;26.83;;;13.50;;
5878;SDS011;2965;42.640;23.370;2024-01-15T02:11:08;30.03;;;13.20;;
5878;SDS011;2965;42.640;23.370;2024-01-15T02:13:33;32.33;;;14.50;;
5878;SDS011;2965;42.640;23.370;2024-01-15T02:15:59;31.83;;;14.60;;
5878;SDS011;2965;42.640;23.370;2024-01-15T02:18:24;26.73;;;13.40;;
5878;SDS011;2965;42.640;23.370;2024-01-15T02:20:50;30.63;;;14.23;;
5878;SDS011;2965;42.640;23.370;2024-01-15T02:23:15;38.70;;;15.60;;
5878;SDS011;2965;42.640;23.370;2024-01-15T02:25:42;29.40;;;13.47;;
5878;SDS011;2965;42.640;23.370;2024-01-15T02:28:10;23.17;;;12.03;;
5878;SDS011;2965;42.640;23.370;2024-01-15T02:30:37;25.30;;;12.67;;
5878;SDS011;2965;42.640;23.370;2024-01-15T02:33:07;26.40;;;13.33;;
5878;SDS011;2965;42.640;23.370;2024-01-15T02:35:33;33.40;;;13.70;;
5878;SDS011;2965;42.640;23.370;2024-01-15T02:38:01;29.53;;;13.70;;
5878;SDS011;2965;42.640;23.370;2024-01-15T02:40:28;29.30;;;12.77;;
5878;SDS011;2965;42.640;23.370;2024-01-15T02:42:53;31.77;;;14.20;;
5878;SDS011;2965;42.640;23.370;2024-01-15T02:45:19;37.47;;;12.63;;
5878;SDS011;2965;42.640;23.370;2024-01-15T02:47:46;29.70;;;12.97;;
5878;SDS011;2965;42.640;23.370;2024-01-15T02:50:12;28.70;;;13.30;;
5878;SDS011;2965;42.640;23.370;2024-01-15T02:52:37;23.07;;;12.37;;
5878;SDS011;2965;42.640;23.370;2024-01-15T02:55:03;29.80;;;12.90;;
5878;SDS011;2965;42.640;23.370;2024-01-15T02:57:28;30.80;;;13.87;;
5878;SDS011;2965;42.640;23.370;2024-01-15T02:59:54;24.83;;;12.37;;
5878;SDS011;2965;42.640;23.370;2024-01-15T03:02:20;28.77;;;12.10;;
5878;SDS011;2965;42.640;23.370;2024-01-15T03:04:45;21.50;;;11.30;;
5878;SDS011;2965;42.640;23.370;2024-01-15T03:07:11;20.50;;;11.03;;
5878;SDS011;2965;42.640;23.370;2024-01-15T03:09:36;24.80;;;11.10;;
5878;SDS011;2965;42.640;23.370;2024-01-15T03:12:02;20.70;;;10.93;;
5878;SDS011;2965;42.640;23.370;2024-01-15T03:14:28;19.77;;;11.60;;
5878;SDS011;2965;42.640;23.370;2024-01-15T03:16:53;25.37;;;11.90;;
5878;SDS011;2965;42.640;23.370;2024-01-15T03:19:19;27.87;;;13.33;;
5878;SDS011;2965;42.640;23.370;2024-01-15T03:21:44;24.13;;;12.50;;
5878;SDS011;2965;42.640;23.370;2024-01-15T03:24:10;22.67;;;11.57;;
5878;SDS011;2965;42.640;23.370;2024-01-15T03:26:35;41.90;;;17.37;;
5878;SDS011;2965;42.640;23.370;2024-01-15T03:29:01;36.50;;;15.27;;
5878;SDS011;2965;42.640;23.370;2024-01-15T03:31:26;26.70;;;12.83;;
5878;SDS011;2965;42.640;23.370;2024-01-15T03:33:52;34.17;;;13.80;;
5878;SDS011;2965;42.640;23.370;2024-01-15T03:36:17;26.93;;;13.83;;
5878;SDS011;2965;42.640;23.370;2024-01-15T03:38:42;28.80;;;12.50;;
5878;SDS011;2965;42.640;23.370;2024-01-15T03:41:08;16.30;;;7.77;;
5878;SDS011;2965;42.640;23.370;2024-01-15T03:43:34;33.03;;;14.93;;
5878;SDS011;2965;42.640;23.370;2024-01-15T03:45:59;35.27;;;15.33;;
5878;SDS011;2965;42.640;23.370;2024-01-15T03:48:25;34.13;;;13.80;;
5878;SDS011;2965;42.640;23.370;2024-01-15T03:50:50;37.33;;;15.87;;
5878;SDS011;2965;42.640;23.370;2024-01-15T03:53:15;32.53;;;14.83;;
5878;SDS011;2965;42.640;23.370;2024-01-15T03:55:41;32.60;;;14.67;;
5878;SDS011;2965;42.640;23.370;2024-01-15T03:58:07;36.03;;;16.27;;
5878;SDS011;2965;42.640;23.370;2024-01-15T04:00:33;47.60;;;17.50;;
5878;SDS011;2965;42.640;23.370;2024-01-15T04:02:58;31.87;;;16.20;;
5878;SDS011;2965;42.640;23.370;2024-01-15T04:05:24;43.30;;;16.97;;
5878;SDS011;2965;42.640;23.370;2024-01-15T04:07:49;42.43;;;18.30;;
5878;SDS011;2965;42.640;23.370;2024-01-15T04:41:00;32.50;;;15.60;;
5878;SDS011;2965;42.640;23.370;2024-01-15T04:43:26;26.97;;;14.00;;
5878;SDS011;2965;42.640;23.370;2024-01-15T04:45:51;33.83;;;15.70;;
5878;SDS011;2965;42.640;23.370;2024-01-15T04:48:17;32.73;;;16.20;;
5878;SDS011;2965;42.640;23.370;2024-01-15T04:50:42;35.87;;;16.57;;
5878;SDS011;2965;42.640;23.370;2024-01-15T04:53:08;32.20;;;15.50;;
5878;SDS011;2965;42.640;23.370;2024-01-15T04:55:33;29.60;;;13.33;;
5878;SDS011;2965;42.640;23.370;2024-01-15T04:57:59;39.57;;;15.60;;
5878;SDS011;2965;42.640;23.370;2024-01-15T05:00:24;33.50;;;15.40;;
5878;SDS011;2965;42.640;23.370;2024-01-15T05:02:50;31.83;;;13.97;;
5878;SDS011;2965;42.640;23.370;2024-01-15T05:05:15;33.07;;;14.93;;
5878;SDS011;2965;42.640;23.370;2024-01-15T05:07:41;35.37;;;15.03;;
5878;SDS011;2965;42.640;23.370;2024-01-15T05:10:06;31.23;;;14.80;;
5878;SDS011;2965;42.640;23.370;2024-01-15T05:12:33;33.77;;;15.80;;
5878;SDS011;2965;42.640;23.370;2024-01-15T05:14:58;38.37;;;15.57;;
5878;SDS011;2965;42.640;23.370;2024-01-15T05:17:24;32.10;;;14.67;;
5878;SDS011;2965;42.640;23.370;2024-01-15T05:19:49;30.37;;;14.23;;
5878;SDS011;2965;42.640;23.370;2024-01-15T05:22:14;32.07;;;14.90;;
5878;SDS011;2965;42.640;23.370;2024-01-15T05:24:40;27.93;;;14.50;;
5878;SDS011;2965;42.640;23.370;2024-01-15T05:27:06;29.33;;;15.07;;
5878;SDS011;2965;42.640;23.370;2024-01-15T05:29:31;32.47;;;14.40;;
5878;SDS011;2965;42.640;23.370;2024-01-15T05:31:57;32.63;;;15.00;;
5878;SDS011;2965;42.640;23.370;2024-01-15T05:34:22;41.67;;;13.00;;
5878;SDS011;2965;42.640;23.370;2024-01-15T05:36:47;35.73;;;15.63;;
5878;SDS011;2965;42.640;23.370;2024-01-15T05:39:13;25.33;;;12.73;;
5878;SDS011;2965;42.640;23.370;2024-01-15T05:41:38;37.40;;;15.80;;
5878;SDS011;2965;42.640;23.370;2024-01-15T05:44:04;32.93;;;16.30;;
5878;SDS011;2965;42.640;23.370;2024-01-15T05:46:29;38.87;;;17.37;;
5878;SDS011;2965;42.640;23.370;2024-01-15T05:48:55;46.47;;;20.00;;
5878;SDS011;2965;42.640;23.370;2024-01-15T05:51:20;43.10;;;18.67;;
